sensor_id;sensor_type;location;lat;lon;timestamp;P1;durP1;ratioP1;P2;durP2;ratioP2
24897;SDS011;12957;49.434;8.684;2023-02-28T00:01:24;2.00;;;1.80;;
24897;SDS011;12957;49.434;8.684;2023-02-28T00:03:50;2.47;;;1.63;;
24897;SDS011;12957;49.434;8.684;2023-02-28T00:06:15;4.73;;;1.93;;
24897;SDS011;12957;49.434;8.684;2023-02-28T00:08:41;1.93;;;1.83;;
24897;SDS011;12957;49.434;8.684;2023-02-28T00:11:08;3.00;;;1.80;;
24897;SDS011;12957;49.434;8.684;2023-02-28T00:13:35;2.37;;;1.63;;
24897;SDS011;12957;49.434;8.684;2023-02-28T00:16:03;2.23;;;1.80;;
24897;SDS011;12957;49.434;8.684;2023-02-28T00:18:29;2.17;;;1.73;;
24897;SDS011;12957;49.434;8.684;2023-02-28T00:20:55;4.03;;;2.03;;
24897;SDS011;12957;49.434;8.684;2023-02-28T00:23:20;2.23;;;1.80;;
24897;SDS011;12957;49.434;8.684;2023-02-28T00:25:46;2.90;;;2.13;;
24897;SDS011;12957;49.434;8.684;2023-02-28T00:28:11;4.13;;;1.93;;
24897;SDS011;12957;49.434;8.684;2023-02-28T00:30:37;1.80;;;1.70;;
24897;SDS011;12957;49.434;8.684;2023-02-28T00:33:02;1.63;;;1.53;;
24897;SDS011;12957;49.434;8.684;2023-02-28T00:35:28;3.17;;;2.27;;
24897;SDS011;12957;49.434;8.684;2023-02-28T00:37:53;2.77;;;1.80;;
24897;SDS011;12957;49.434;8.684;2023-02-28T00:40:19;2.90;;;1.70;;
24897;SDS011;12957;49.434;8.684;2023-02-28T00:42:44;5.87;;;1.70;;
24897;SDS011;12957;49.434;8.684;2023-02-28T00:45:10;2.90;;;1.90;;
24897;SDS011;12957;49.434;8.684;2023-02-28T00:47:35;2.33;;;1.90;;
24897;SDS011;12957;49.434;8.684;2023-02-28T00:50:01;1.93;;;1.73;;
24897;SDS011;12957;49.434;8.684;2023-02-28T00:52:26;2.20;;;2.00;;
24897;SDS011;12957;49.434;8.684;2023-02-28T00:54:52;2.63;;;2.00;;
24897;SDS011;12957;49.434;8.684;2023-02-28T00:57:17;3.30;;;1.90;;
24897;SDS011;12957;49.434;8.684;2023-02-28T00:59:43;3.20;;;1.90;;
24897;SDS011;12957;49.434;8.684;2023-02-28T01:02:08;2.67;;;2.30;;
24897;SDS011;12957;49.434;8.684;2023-02-28T01:04:34;2.70;;;1.97;;
24897;SDS011;12957;49.434;8.684;2023-02-28T01:06:59;3.23;;;2.30;;
24897;SDS011;12957;49.434;8.684;2023-02-28T01:09:25;2.20;;;2.00;;
24897;SDS011;12957;49.434;8.684;2023-02-28T01:11:50;4.17;;;2.00;;
24897;SDS011;12957;49.434;8.684;2023-02-28T01:14:16;3.33;;;2.10;;
24897;SDS011;12957;49.434;8.684;2023-02-28T01:16:42;3.23;;;1.90;;
24897;SDS011;12957;49.434;8.684;2023-02-28T01:19:08;2.93;;;2.27;;
24897;SDS011;12957;49.434;8.684;2023-02-28T01:21:33;3.27;;;1.90;;
24897;SDS011;12957;49.434;8.684;2023-02-28T01:24:00;4.30;;;2.20;;
24897;SDS011;12957;49.434;8.684;2023-02-28T01:26:25;4.33;;;2.10;;
24897;SDS011;12957;49.434;8.684;2023-02-28T01:28:51;2.83;;;2.30;;
24897;SDS011;12957;49.434;8.684;2023-02-28T01:31:17;2.23;;;1.77;;
24897;SDS011;12957;49.434;8.684;2023-02-28T01:33:44;4.57;;;2.60;;
24897;SDS011;12957;49.434;8.684;2023-02-28T01:36:14;3.70;;;2.40;;
24897;SDS011;12957;49.434;8.684;2023-02-28T01:38:40;3.33;;;2.40;;
24897;SDS011;12957;49.434;8.684;2023-02-28T01:41:06;2.83;;;2.43;;
24897;SDS011;12957;49.434;8.684;2023-02-28T01:43:54;4.97;;;2.20;;
24897;SDS011;12957;49.434;8.684;2023-02-28T01:46:23;4.90;;;2.30;;
24897;SDS011;12957;49.434;8.684;2023-02-28T01:49:00;4.07;;;2.30;;
24897;SDS011;12957;49.434;8.684;2023-02-28T01:51:37;2.20;;;2.00;;
24897;SDS011;12957;49.434;8.684;2023-02-28T01:56:52;4.23;;;2.50;;
24897;SDS011;12957;49.434;8.684;2023-02-28T01:59:26;2.57;;;2.23;;
24897;SDS011;12957;49.434;8.684;2023-02-28T02:01:53;3.23;;;2.40;;
24897;SDS011;12957;49.434;8.684;2023-02-28T02:04:19;3.00;;;2.50;;
24897;SDS011;12957;49.434;8.684;2023-02-28T02:06:46;3.17;;;2.40;;
24897;SDS011;12957;49.434;8.684;2023-02-28T02:09:12;4.53;;;2.70;;
24897;SDS011;12957;49.434;8.684;2023-02-28T02:11:39;4.40;;;2.90;;
24897;SDS011;12957;49.434;8.684;2023-02-28T02:17:12;2.93;;;2.50;;
24897;SDS011;12957;49.434;8.684;2023-02-28T02:19:55;4.40;;;2.47;;
24897;SDS011;12957;49.434;8.684;2023-02-28T02:25:32;4.17;;;3.03;;
24897;SDS011;12957;49.434;8.684;2023-02-28T02:33:28;3.93;;;3.00;;
24897;SDS011;12957;49.434;8.684;2023-02-28T02:38:33;5.67;;;2.87;;
24897;SDS011;12957;49.434;8.684;2023-02-28T02:41:26;8.53;;;2.67;;
24897;SDS011;12957;49.434;8.684;2023-02-28T02:46:33;3.10;;;2.60;;
24897;SDS011;12957;49.434;8.684;2023-02-28T02:49:00;5.83;;;2.60;;
24897;SDS011;12957;49.434;8.684;2023-02-28T02:51:29;4.73;;;2.90;;
24897;SDS011;12957;49.434;8.684;2023-02-28T02:54:06;3.70;;;2.83;;
24897;SDS011;12957;49.434;8.684;2023-02-28T02:56:34;3.93;;;2.70;;
24897;SDS011;12957;49.434;8.684;2023-02-28T02:59:02;4.47;;;2.70;;
24897;SDS011;12957;49.434;8.684;2023-02-28T03:01:30;4.43;;;3.10;;
24897;SDS011;12957;49.434;8.684;2023-02-28T03:04:01;5.03;;;2.70;;
24897;SDS011;12957;49.434;8.684;2023-02-28T03:06:31;3.03;;;2.57;;
24897;SDS011;12957;49.434;8.684;2023-02-28T03:08:57;2.97;;;2.60;;
24897;SDS011;12957;49.434;8.684;2023-02-28T03:11:22;3.30;;;2.77;;
24897;SDS011;12957;49.434;8.684;2023-02-28T03:14:04;5.57;;;3.07;;
24897;SDS011;12957;49.434;8.684;2023-02-28T03:25:33;5.13;;;3.20;;
24897;SDS011;12957;49.434;8.684;2023-02-28T03:30:15;4.83;;;3.20;;
24897;SDS011;12957;49.434;8.684;2023-02-28T03:35:34;8.63;;;3.20;;
24897;SDS011;12957;49.434;8.684;2023-02-28T03:38:07;3.77;;;3.10;;
24897;SDS011;12957;49.434;8.684;2023-02-28T03:40:38;6.07;;;3.50;;
24897;SDS011;12957;49.434;8.684;2023-02-28T03:43:12;6.87;;;3.10;;
24897;SDS011;12957;49.434;8.684;2023-02-28T03:45:38;4.03;;;3.20;;
24897;SDS011;12957;49.434;8.684;2023-02-28T03:48:27;4.10;;;3.27;;
24897;SDS011;12957;49.434;8.684;2023-02-28T03:51:09;6.77;;;3.70;;
24897;SDS011;12957;49.434;8.684;2023-02-28T03:53:41;4.13;;;3.13;;
24897;SDS011;12957;49.434;8.684;2023-02-28T03:56:19;4.70;;;3.37;;
24897;SDS011;12957;49.434;8.684;2023-02-28T03:58:54;7.83;;;3.30;;
24897;SDS011;12957;49.434;8.684;2023-02-28T04:02:02;5.70;;;3.23;;
24897;SDS011;12957;49.434;8.684;2023-02-28T04:04:10;6.07;;;3.13;;
24897;SDS011;12957;49.434;8.684;2023-02-28T04:06:36;4.70;;;3.63;;
24897;SDS011;12957;49.434;8.684;2023-02-28T04:09:02;5.80;;;3.40;;
24897;SDS011;12957;49.434;8.684;2023-02-28T04:13:57;6.63;;;3.20;;
24897;SDS011;12957;49.434;8.684;2023-02-28T04:16:22;5.47;;;3.33;;
24897;SDS011;12957;49.434;8.684;2023-02-28T04:18:48;4.50;;;3.53;;
24897;SDS011;12957;49.434;8.684;2023-02-28T04:21:13;5.07;;;3.63;;
24897;SDS011;12957;49.434;8.684;2023-02-28T04:23:39;4.47;;;3.33;;
24897;SDS011;12957;49.434;8.684;2023-02-28T04:26:04;6.23;;;3.57;;
24897;SDS011;12957;49.434;8.684;2023-02-28T04:28:31;4.70;;;3.27;;
24897;SDS011;12957;49.434;8.684;2023-02-28T04:30:57;4.20;;;2.93;;
24897;SDS011;12957;49.434;8.684;2023-02-28T04:33:27;8.73;;;3.70;;
24897;SDS011;12957;49.434;8.684;2023-02-28T04:35:59;5.80;;;3.53;;
24897;SDS011;12957;49.434;8.684;2023-02-28T04:38:32;6.47;;;3.40;;
24897;SDS011;12957;49.434;8.684;2023-02-28T04:40:59;5.83;;;3.37;;
24897;SDS011;12957;49.434;8.684;2023-02-28T04:43:25;6.43;;;3.60;;
24897;SDS011;12957;49.434;8.684;2023-02-28T04:45:51;5.40;;;3.67;;
24897;SDS011;12957;49.434;8.684;2023-02-28T04:48:17;4.63;;;3.40;;
24897;SDS011;12957;49.434;8.684;2023-02-28T04:50:42;8.00;;;3.87;;
24897;SDS011;12957;49.434;8.684;2023-02-28T04:53:08;5.37;;;3.43;;
24897;SDS011;12957;49.434;8.684;2023-02-28T04:55:34;4.53;;;3.07;;
24897;SDS011;12957;49.434;8.684;2023-02-28T04:57:59;4.87;;;3.23;;
24897;SDS011;12957;49.434;8.684;2023-02-28T05:00:25;3.93;;;3.17;;
24897;SDS011;12957;49.434;8.684;2023-02-28T05:02:50;6.10;;;3.43;;
24897;SDS011;12957;49.434;8.684;2023-02-28T05:05:16;4.07;;;3.00;;
24897;SDS011;12957;49.434;8.684;2023-02-28T05:07:43;4.63;;;3.40;;
24897;SDS011;12957;49.434;8.684;2023-02-28T05:10:09;9.03;;;3.63;;
24897;SDS011;12957;49.434;8.684;2023-02-28T05:12:35;3.73;;;3.30;;
24897;SDS011;12957;49.434;8.684;2023-02-28T05:15:00;5.20;;;3.17;;
24897;SDS011;12957;49.434;8.684;2023-02-28T05:17:27;3.27;;;2.97;;
24897;SDS011;12957;49.434;8.684;2023-02-28T05:19:52;5.33;;;3.10;;
24897;SDS011;12957;49.434;8.684;2023-02-28T05:22:18;7.53;;;3.40;;
24897;SDS011;12957;49.434;8.684;2023-02-28T05:24:43;6.03;;;3.47;;
24897;SDS011;12957;49.434;8.684;2023-02-28T05:27:09;6.73;;;3.40;;
24897;SDS011;12957;49.434;8.684;2023-02-28T05:29:35;5.93;;;3.37;;
24897;SDS011;12957;49.434;8.684;2023-02-28T05:32:07;3.87;;;3.30;;
24897;SDS011;12957;49.434;8.684;2023-02-28T05:34:34;6.17;;;3.60;;
24897;SDS011;12957;49.434;8.684;2023-02-28T05:37:01;4.43;;;3.40;;
24897;SDS011;12957;49.434;8.684;2023-02-28T05:39:26;4.80;;;3.33;;
24897;SDS011;12957;49.434;8.684;2023-02-28T05:41:52;4.80;;;3.07;;
24897;SDS011;12957;49.434;8.684;2023-02-28T05:44:17;3.37;;;3.03;;
24897;SDS011;12957;49.434;8.684;2023-02-28T05:46:43;4.10;;;3.10;;
24897;SDS011;12957;49.434;8.684;2023-02-28T05:49:08;3.97;;;3.33;;
24897;SDS011;12957;49.434;8.684;2023-02-28T05:51:34;6.63;;;3.60;;
24897;SDS011;12957;49.434;8.684;2023-02-28T05:54:01;4.63;;;3.23;;
24897;SDS011;12957;49.434;8.684;2023-02-28T05:56:26;6.43;;;3.17;;
24897;SDS011;12957;49.434;8.684;2023-02-28T05:58:52;6.30;;;3.90;;
24897;SDS011;12957;49.434;8.684;2023-02-28T06:01:22;4.47;;;3.57;;
24897;SDS011;12957;49.434;8.684;2023-02-28T06:03:49;6.00;;;3.40;;
24897;SDS011;12957;49.434;8.684;2023-02-28T06:06:14;7.47;;;3.47;;
24897;SDS011;12957;49.434;8.684;2023-02-28T06:08:40;6.60;;;3.57;;
24897;SDS011;12957;49.434;8.684;2023-02-28T06:11:05;4.93;;;3.57;;
24897;SDS011;12957;49.434;8.684;2023-02-28T06:13:31;4.50;;;3.27;;
24897;SDS011;12957;49.434;8.684;2023-02-28T06:16:00;4.73;;;3.20;;
24897;SDS011;12957;49.434;8.684;2023-02-28T06:18:25;3.97;;;3.30;;
24897;SDS011;12957;49.434;8.684;2023-02-28T06:20:54;6.60;;;3.80;;
24897;SDS011;12957;49.434;8.684;2023-02-28T06:23:20;7.13;;;3.37;;
24897;SDS011;12957;49.434;8.684;2023-02-28T06:25:46;5.47;;;3.70;;
24897;SDS011;12957;49.434;8.684;2023-02-28T06:28:12;5.67;;;3.50;;
24897;SDS011;12957;49.434;8.684;2023-02-28T06:30:38;11.87;;;4.07;;
24897;SDS011;12957;49.434;8.684;2023-02-28T06:33:04;6.30;;;3.40;;
24897;SDS011;12957;49.434;8.684;2023-02-28T06:35:30;6.30;;;3.90;;
24897;SDS011;12957;49.434;8.684;2023-02-28T06:37:55;8.20;;;4.07;;
24897;SDS011;12957;49.434;8.684;2023-02-28T06:40:21;6.50;;;4.20;;
24897;SDS011;12957;49.434;8.684;2023-02-28T06:42:46;8.10;;;3.80;;
24897;SDS011;12957;49.434;8.684;2023-02-28T06:45:12;4.70;;;3.70;;
24897;SDS011;12957;49.434;8.684;2023-02-28T06:47:38;8.03;;;4.00;;
24897;SDS011;12957;49.434;8.684;2023-02-28T06:50:05;6.67;;;4.00;;
24897;SDS011;12957;49.434;8.684;2023-02-28T06:52:31;6.20;;;3.67;;
24897;SDS011;12957;49.434;8.684;2023-02-28T06:54:57;6.13;;;3.50;;
24897;SDS011;12957;49.434;8.684;2023-02-28T06:57:29;7.17;;;4.00;;
24897;SDS011;12957;49.434;8.684;2023-02-28T06:59:58;7.97;;;3.90;;
24897;SDS011;12957;49.434;8.684;2023-02-28T07:02:24;6.03;;;4.07;;
24897;SDS011;12957;49.434;8.684;2023-02-28T07:04:50;5.57;;;3.27;;
24897;SDS011;12957;49.434;8.684;2023-02-28T07:07:15;5.00;;;3.80;;
24897;SDS011;12957;49.434;8.684;2023-02-28T07:09:41;5.70;;;3.87;;
24897;SDS011;12957;49.434;8.684;2023-02-28T07:12:06;5.63;;;3.77;;
24897;SDS011;12957;49.434;8.684;2023-02-28T07:14:32;6.57;;;3.87;;
24897;SDS011;12957;49.434;8.684;2023-02-28T07:16:57;4.83;;;3.50;;
24897;SDS011;12957;49.434;8.684;2023-02-28T07:19:23;6.10;;;3.87;;
24897;SDS011;12957;49.434;8.684;2023-02-28T07:21:48;6.10;;;4.07;;
24897;SDS011;12957;49.434;8.684;2023-02-28T07:24:14;7.30;;;4.30;;
24897;SDS011;12957;49.434;8.684;2023-02-28T07:26:41;6.40;;;3.67;;
24897;SDS011;12957;49.434;8.684;2023-02-28T07:29:06;7.30;;;3.97;;
24897;SDS011;12957;49.434;8.684;2023-02-28T07:31:32;5.87;;;4.00;;
24897;SDS011;12957;49.434;8.684;2023-02-28T07:33:57;6.53;;;4.13;;
24897;SDS011;12957;49.434;8.684;2023-02-28T07:36:23;10.67;;;4.80;;
24897;SDS011;12957;49.434;8.684;2023-02-28T07:38:49;7.90;;;4.23;;
24897;SDS011;12957;49.434;8.684;2023-02-28T07:41:19;6.60;;;3.90;;
24897;SDS011;12957;49.434;8.684;2023-02-28T07:43:46;6.37;;;4.07;;
24897;SDS011;12957;49.434;8.684;2023-02-28T07:46:13;8.33;;;4.13;;
24897;SDS011;12957;49.434;8.684;2023-02-28T07:48:42;5.23;;;3.80;;
24897;SDS011;12957;49.434;8.684;2023-02-28T07:51:08;7.23;;;3.97;;
24897;SDS011;12957;49.434;8.684;2023-02-28T07:53:34;4.87;;;3.80;;
24897;SDS011;12957;49.434;8.684;2023-02-28T07:56:00;6.87;;;4.07;;
24897;SDS011;12957;49.434;8.684;2023-02-28T07:58:26;6.07;;;4.40;;
24897;SDS011;12957;49.434;8.684;2023-02-28T08:00:52;6.93;;;4.10;;
24897;SDS011;12957;49.434;8.684;2023-02-28T08:03:18;6.17;;;4.47;;
24897;SDS011;12957;49.434;8.684;2023-02-28T08:05:44;6.30;;;3.93;;
24897;SDS011;12957;49.434;8.684;2023-02-28T08:08:13;5.90;;;4.00;;
24897;SDS011;12957;49.434;8.684;2023-02-28T08:10:38;6.60;;;4.17;;
24897;SDS011;12957;49.434;8.684;2023-02-28T08:13:04;7.23;;;4.23;;
24897;SDS011;12957;49.434;8.684;2023-02-28T08:15:32;5.80;;;3.90;;
24897;SDS011;12957;49.434;8.684;2023-02-28T08:17:57;6.80;;;4.10;;
24897;SDS011;12957;49.434;8.684;2023-02-28T08:20:23;7.47;;;4.20;;
24897;SDS011;12957;49.434;8.684;2023-02-28T08:22:52;5.97;;;4.10;;
24897;SDS011;12957;49.434;8.684;2023-02-28T08:25:17;6.57;;;4.40;;
24897;SDS011;12957;49.434;8.684;2023-02-28T08:27:43;5.20;;;3.70;;
24897;SDS011;12957;49.434;8.684;2023-02-28T08:30:12;5.93;;;4.17;;
24897;SDS011;12957;49.434;8.684;2023-02-28T08:32:38;6.60;;;3.90;;
24897;SDS011;12957;49.434;8.684;2023-02-28T08:35:08;6.63;;;3.97;;
24897;SDS011;12957;49.434;8.684;2023-02-28T08:37:36;7.20;;;4.70;;
24897;SDS011;12957;49.434;8.684;2023-02-28T08:40:01;5.90;;;4.20;;
24897;SDS011;12957;49.434;8.684;2023-02-28T08:42:28;5.13;;;4.03;;
24897;SDS011;12957;49.434;8.684;2023-02-28T08:44:54;6.90;;;4.33;;
24897;SDS011;12957;49.434;8.684;2023-02-28T08:47:19;8.03;;;4.83;;
24897;SDS011;12957;49.434;8.684;2023-02-28T08:49:45;6.50;;;4.23;;
24897;SDS011;12957;49.434;8.684;2023-02-28T08:52:11;6.47;;;4.33;;
24897;SDS011;12957;49.434;8.684;2023-02-28T08:54:36;7.27;;;4.53;;
24897;SDS011;12957;49.434;8.684;2023-02-28T08:57:02;13.37;;;4.97;;
24897;SDS011;12957;49.434;8.684;2023-02-28T08:59:28;7.53;;;4.83;;
24897;SDS011;12957;49.434;8.684;2023-02-28T09:01:54;5.07;;;4.13;;
24897;SDS011;12957;49.434;8.684;2023-02-28T09:04:19;8.00;;;4.07;;
24897;SDS011;12957;49.434;8.684;2023-02-28T09:06:45;4.70;;;3.97;;
24897;SDS011;12957;49.434;8.684;2023-02-28T09:09:11;8.57;;;4.23;;
24897;SDS011;12957;49.434;8.684;2023-02-28T09:11:36;5.90;;;4.23;;
24897;SDS011;12957;49.434;8.684;2023-02-28T09:14:02;4.10;;;3.70;;
24897;SDS011;12957;49.434;8.684;2023-02-28T09:16:31;7.17;;;4.50;;
24897;SDS011;12957;49.434;8.684;2023-02-28T09:18:57;8.17;;;4.60;;
24897;SDS011;12957;49.434;8.684;2023-02-28T09:21:23;6.03;;;4.13;;
24897;SDS011;12957;49.434;8.684;2023-02-28T09:23:49;6.57;;;4.07;;
24897;SDS011;12957;49.434;8.684;2023-02-28T09:26:18;5.40;;;4.40;;
24897;SDS011;12957;49.434;8.684;2023-02-28T09:28:45;8.30;;;4.90;;
24897;SDS011;12957;49.434;8.684;2023-02-28T09:31:15;8.60;;;4.67;;
24897;SDS011;12957;49.434;8.684;2023-02-28T09:33:42;7.85;;;4.63;;
24897;SDS011;12957;49.434;8.684;2023-02-28T09:36:07;5.82;;;4.50;;
24897;SDS011;12957;49.434;8.684;2023-02-28T09:38:33;5.93;;;4.70;;
24897;SDS011;12957;49.434;8.684;2023-02-28T09:41:03;10.82;;;4.68;;
24897;SDS011;12957;49.434;8.684;2023-02-28T09:43:35;6.80;;;4.82;;
24897;SDS011;12957;49.434;8.684;2023-02-28T09:48:52;5.90;;;4.30;;
24897;SDS011;12957;49.434;8.684;2023-02-28T09:52:02;7.40;;;4.45;;
24897;SDS011;12957;49.434;8.684;2023-02-28T09:54:14;9.48;;;4.80;;
24897;SDS011;12957;49.434;8.684;2023-02-28T09:56:44;5.93;;;4.60;;
24897;SDS011;12957;49.434;8.684;2023-02-28T10:01:57;7.87;;;4.70;;
24897;SDS011;12957;49.434;8.684;2023-02-28T10:06:59;9.13;;;5.30;;
24897;SDS011;12957;49.434;8.684;2023-02-28T10:09:31;6.53;;;4.67;;
24897;SDS011;12957;49.434;8.684;2023-02-28T10:12:03;10.20;;;5.17;;
24897;SDS011;12957;49.434;8.684;2023-02-28T10:14:30;6.37;;;4.70;;
24897;SDS011;12957;49.434;8.684;2023-02-28T10:16:59;6.10;;;4.70;;
24897;SDS011;12957;49.434;8.684;2023-02-28T10:19:35;7.17;;;4.63;;
24897;SDS011;12957;49.434;8.684;2023-02-28T10:22:11;5.07;;;4.40;;
24897;SDS011;12957;49.434;8.684;2023-02-28T10:24:47;7.73;;;5.07;;
24897;SDS011;12957;49.434;8.684;2023-02-28T10:29:47;7.93;;;4.97;;
24897;SDS011;12957;49.434;8.684;2023-02-28T10:32:15;8.70;;;5.43;;
24897;SDS011;12957;49.434;8.684;2023-02-28T10:34:42;6.37;;;4.57;;
24897;SDS011;12957;49.434;8.684;2023-02-28T10:37:08;7.63;;;4.97;;
24897;SDS011;12957;49.434;8.684;2023-02-28T10:42:04;7.40;;;4.77;;
24897;SDS011;12957;49.434;8.684;2023-02-28T10:44:30;7.70;;;5.20;;
24897;SDS011;12957;49.434;8.684;2023-02-28T10:46:56;8.10;;;5.17;;
24897;SDS011;12957;49.434;8.684;2023-02-28T10:49:27;6.57;;;4.77;;
24897;SDS011;12957;49.434;8.684;2023-02-28T10:51:58;8.77;;;5.10;;
24897;SDS011;12957;49.434;8.684;2023-02-28T10:59:51;7.27;;;4.50;;
24897;SDS011;12957;49.434;8.684;2023-02-28T11:02:31;8.17;;;5.27;;
24897;SDS011;12957;49.434;8.684;2023-02-28T11:05:00;10.63;;;5.70;;
24897;SDS011;12957;49.434;8.684;2023-02-28T11:07:26;6.13;;;4.70;;
24897;SDS011;12957;49.434;8.684;2023-02-28T11:09:53;8.57;;;5.30;;
24897;SDS011;12957;49.434;8.684;2023-02-28T11:12:22;8.17;;;4.87;;
24897;SDS011;12957;49.434;8.684;2023-02-28T11:15:33;9.83;;;5.33;;
24897;SDS011;12957;49.434;8.684;2023-02-28T11:17:54;7.90;;;5.20;;
24897;SDS011;12957;49.434;8.684;2023-02-28T11:20:43;9.17;;;5.13;;
24897;SDS011;12957;49.434;8.684;2023-02-28T11:23:13;8.80;;;5.27;;
24897;SDS011;12957;49.434;8.684;2023-02-28T11:25:39;7.20;;;5.33;;
24897;SDS011;12957;49.434;8.684;2023-02-28T11:28:05;10.30;;;5.33;;
24897;SDS011;12957;49.434;8.684;2023-02-28T11:30:40;7.53;;;4.90;;
24897;SDS011;12957;49.434;8.684;2023-02-28T11:36:03;8.33;;;5.33;;
24897;SDS011;12957;49.434;8.684;2023-02-28T11:38:33;7.87;;;5.63;;
24897;SDS011;12957;49.434;8.684;2023-02-28T11:46:06;10.07;;;5.73;;
24897;SDS011;12957;49.434;8.684;2023-02-28T11:51:18;9.43;;;5.63;;
24897;SDS011;12957;49.434;8.684;2023-02-28T11:56:57;8.70;;;5.63;;
24897;SDS011;12957;49.434;8.684;2023-02-28T11:59:42;8.93;;;5.47;;
24897;SDS011;12957;49.434;8.684;2023-02-28T12:02:23;8.57;;;5.47;;
24897;SDS011;12957;49.434;8.684;2023-02-28T12:10:28;9.93;;;6.17;;
24897;SDS011;12957;49.434;8.684;2023-02-28T12:15:42;10.17;;;5.83;;
24897;SDS011;12957;49.434;8.684;2023-02-28T12:25:01;10.63;;;6.10;;
24897;SDS011;12957;49.434;8.684;2023-02-28T12:27:11;10.10;;;5.80;;
24897;SDS011;12957;49.434;8.684;2023-02-28T12:29:45;8.53;;;5.93;;
24897;SDS011;12957;49.434;8.684;2023-02-28T12:32:19;9.20;;;5.43;;
24897;SDS011;12957;49.434;8.684;2023-02-28T12:34:49;10.70;;;6.17;;
24897;SDS011;12957;49.434;8.684;2023-02-28T12:37:19;8.33;;;5.73;;
24897;SDS011;12957;49.434;8.684;2023-02-28T12:40:19;9.27;;;5.67;;
24897;SDS011;12957;49.434;8.684;2023-02-28T12:42:47;8.20;;;6.00;;
24897;SDS011;12957;49.434;8.684;2023-02-28T12:45:17;7.60;;;5.60;;
24897;SDS011;12957;49.434;8.684;2023-02-28T12:47:45;10.67;;;6.40;;
24897;SDS011;12957;49.434;8.684;2023-02-28T12:50:13;6.80;;;5.57;;
24897;SDS011;12957;49.434;8.684;2023-02-28T12:52:51;10.53;;;5.77;;
24897;SDS011;12957;49.434;8.684;2023-02-28T12:57:58;11.03;;;5.93;;
24897;SDS011;12957;49.434;8.684;2023-02-28T13:00:34;9.67;;;5.70;;
24897;SDS011;12957;49.434;8.684;2023-02-28T13:11:01;8.90;;;6.10;;
24897;SDS011;12957;49.434;8.684;2023-02-28T13:13:28;8.45;;;5.55;;
24897;SDS011;12957;49.434;8.684;2023-02-28T13:21:07;9.43;;;5.90;;
24897;SDS011;12957;49.434;8.684;2023-02-28T13:26:23;10.47;;;6.17;;
24897;SDS011;12957;49.434;8.684;2023-02-28T13:34:30;8.33;;;6.03;;
24897;SDS011;12957;49.434;8.684;2023-02-28T13:45:22;9.57;;;6.50;;
24897;SDS011;12957;49.434;8.684;2023-02-28T13:47:49;9.23;;;6.07;;
24897;SDS011;12957;49.434;8.684;2023-02-28T14:04:06;8.87;;;6.23;;
24897;SDS011;12957;49.434;8.684;2023-02-28T14:06:54;11.30;;;7.07;;
24897;SDS011;12957;49.434;8.684;2023-02-28T14:11:50;10.30;;;6.60;;
24897;SDS011;12957;49.434;8.684;2023-02-28T14:17:00;11.20;;;6.63;;
24897;SDS011;12957;49.434;8.684;2023-02-28T14:19:46;9.00;;;6.27;;
24897;SDS011;12957;49.434;8.684;2023-02-28T14:27:53;7.77;;;5.80;;
24897;SDS011;12957;49.434;8.684;2023-02-28T14:30:51;8.27;;;5.50;;
24897;SDS011;12957;49.434;8.684;2023-02-28T14:38:31;8.37;;;5.80;;
24897;SDS011;12957;49.434;8.684;2023-02-28T14:40:58;9.23;;;6.07;;
24897;SDS011;12957;49.434;8.684;2023-02-28T14:43:27;9.18;;;6.38;;
24897;SDS011;12957;49.434;8.684;2023-02-28T14:45:57;7.87;;;5.77;;
24897;SDS011;12957;49.434;8.684;2023-02-28T14:48:24;10.00;;;6.43;;
24897;SDS011;12957;49.434;8.684;2023-02-28T14:50:52;10.17;;;6.70;;
24897;SDS011;12957;49.434;8.684;2023-02-28T14:53:19;9.40;;;6.38;;
24897;SDS011;12957;49.434;8.684;2023-02-28T14:55:47;12.70;;;6.37;;
24897;SDS011;12957;49.434;8.684;2023-02-28T14:58:21;14.40;;;6.87;;
24897;SDS011;12957;49.434;8.684;2023-02-28T15:00:52;7.93;;;6.20;;
24897;SDS011;12957;49.434;8.684;2023-02-28T15:03:23;10.27;;;6.27;;
24897;SDS011;12957;49.434;8.684;2023-02-28T15:05:53;12.67;;;7.00;;
24897;SDS011;12957;49.434;8.684;2023-02-28T15:08:25;8.50;;;6.27;;
24897;SDS011;12957;49.434;8.684;2023-02-28T15:13:39;8.20;;;6.07;;
24897;SDS011;12957;49.434;8.684;2023-02-28T15:16:08;8.33;;;6.17;;
24897;SDS011;12957;49.434;8.684;2023-02-28T15:18:43;10.43;;;6.60;;
24897;SDS011;12957;49.434;8.684;2023-02-28T15:23:56;11.53;;;6.73;;
24897;SDS011;12957;49.434;8.684;2023-02-28T15:26:27;11.63;;;6.73;;
24897;SDS011;12957;49.434;8.684;2023-02-28T15:28:58;10.10;;;6.60;;
24897;SDS011;12957;49.434;8.684;2023-02-28T15:31:29;13.00;;;6.43;;
24897;SDS011;12957;49.434;8.684;2023-02-28T15:33:58;10.60;;;6.10;;
24897;SDS011;12957;49.434;8.684;2023-02-28T15:36:29;8.10;;;5.90;;
24897;SDS011;12957;49.434;8.684;2023-02-28T15:38:57;13.00;;;6.90;;
24897;SDS011;12957;49.434;8.684;2023-02-28T15:41:30;13.43;;;7.07;;
24897;SDS011;12957;49.434;8.684;2023-02-28T15:46:58;11.93;;;6.83;;
24897;SDS011;12957;49.434;8.684;2023-02-28T15:49:26;10.63;;;6.40;;
24897;SDS011;12957;49.434;8.684;2023-02-28T15:51:53;9.50;;;6.17;;
24897;SDS011;12957;49.434;8.684;2023-02-28T15:54:23;15.77;;;6.63;;
24897;SDS011;12957;49.434;8.684;2023-02-28T15:56:51;10.23;;;6.07;;
24897;SDS011;12957;49.434;8.684;2023-02-28T15:59:21;11.17;;;6.47;;
24897;SDS011;12957;49.434;8.684;2023-02-28T16:02:02;10.70;;;6.40;;
24897;SDS011;12957;49.434;8.684;2023-02-28T16:04:54;10.13;;;6.53;;
24897;SDS011;12957;49.434;8.684;2023-02-28T16:07:26;12.20;;;6.27;;
24897;SDS011;12957;49.434;8.684;2023-02-28T16:09:51;7.97;;;5.83;;
24897;SDS011;12957;49.434;8.684;2023-02-28T16:12:18;10.10;;;6.10;;
24897;SDS011;12957;49.434;8.684;2023-02-28T16:14:44;8.27;;;6.00;;
24897;SDS011;12957;49.434;8.684;2023-02-28T16:17:20;9.57;;;5.97;;
24897;SDS011;12957;49.434;8.684;2023-02-28T16:19:47;12.77;;;6.60;;
24897;SDS011;12957;49.434;8.684;2023-02-28T16:22:12;8.73;;;6.00;;
24897;SDS011;12957;49.434;8.684;2023-02-28T16:24:38;10.97;;;6.17;;
24897;SDS011;12957;49.434;8.684;2023-02-28T16:27:05;11.60;;;6.10;;
24897;SDS011;12957;49.434;8.684;2023-02-28T16:29:31;10.90;;;6.20;;
24897;SDS011;12957;49.434;8.684;2023-02-28T16:32:00;10.10;;;5.80;;
24897;SDS011;12957;49.434;8.684;2023-02-28T16:34:26;9.87;;;5.70;;
24897;SDS011;12957;49.434;8.684;2023-02-28T16:36:51;10.10;;;6.40;;
24897;SDS011;12957;49.434;8.684;2023-02-28T16:39:17;10.13;;;6.07;;
24897;SDS011;12957;49.434;8.684;2023-02-28T16:41:45;11.80;;;5.90;;
24897;SDS011;12957;49.434;8.684;2023-02-28T16:44:13;8.60;;;5.20;;
24897;SDS011;12957;49.434;8.684;2023-02-28T16:46:46;9.10;;;5.90;;
24897;SDS011;12957;49.434;8.684;2023-02-28T16:49:11;8.47;;;5.63;;
24897;SDS011;12957;49.434;8.684;2023-02-28T16:51:37;13.93;;;6.20;;
24897;SDS011;12957;49.434;8.684;2023-02-28T16:54:03;12.63;;;6.20;;
24897;SDS011;12957;49.434;8.684;2023-02-28T16:56:29;9.40;;;5.93;;
24897;SDS011;12957;49.434;8.684;2023-02-28T16:58:55;8.50;;;5.80;;
24897;SDS011;12957;49.434;8.684;2023-02-28T17:01:24;24.10;;;7.13;;
24897;SDS011;12957;49.434;8.684;2023-02-28T17:03:52;9.30;;;5.70;;
24897;SDS011;12957;49.434;8.684;2023-02-28T17:06:19;10.80;;;5.97;;
24897;SDS011;12957;49.434;8.684;2023-02-28T17:08:48;8.03;;;5.80;;
24897;SDS011;12957;49.434;8.684;2023-02-28T17:11:14;15.37;;;6.27;;
24897;SDS011;12957;49.434;8.684;2023-02-28T17:13:40;10.17;;;6.20;;
24897;SDS011;12957;49.434;8.684;2023-02-28T17:16:05;10.90;;;5.80;;
24897;SDS011;12957;49.434;8.684;2023-02-28T17:18:31;9.70;;;6.03;;
24897;SDS011;12957;49.434;8.684;2023-02-28T17:20:59;8.30;;;5.90;;
24897;SDS011;12957;49.434;8.684;2023-02-28T17:23:25;12.97;;;6.47;;
24897;SDS011;12957;49.434;8.684;2023-02-28T17:25:50;8.33;;;5.80;;
24897;SDS011;12957;49.434;8.684;2023-02-28T17:28:20;11.57;;;6.20;;